BXTK1: Spring River at Baxter Springs

                                SHEF ID:       BXTK1     SPRING R NR BAXTER SPRINGS, KS
STATION TYPE:

PRECIP STAGE RIV-FLOW BAT-LOAD
in ft cfs volt
Ccp-Rev Ccp-Rev Ccp-Rev Ccp-Rev
(America/Chicago)
04/30 00:00 0.00 5.59 6041 12.37
04/30 01:00 0.00 5.55 5900 12.34
04/30 02:00 0.00 5.50 5726 12.34
04/30 03:00 0.00 5.45 5555 12.31
04/30 04:00 0.00 5.41 5420 12.31
04/30 05:00 0.00 5.36 5254 12.27
04/30 06:00 0.00 5.32 5122 12.23
04/30 07:00 0.00 5.29 5025 12.18
04/30 08:00 0.00 5.25 4896 12.61
04/30 09:00 0.00 5.22 4801 13.11
04/30 10:00 0.00 5.19 4707 13.98
04/30 11:00 0.00 5.16 4613 14.08
04/30 12:00 0.00 5.13 4521 14.12
04/30 13:00 0.00 5.11 4459 13.90
04/30 14:00 0.00 5.09 4398 13.78
04/30 15:00 0.00 5.07 4338 13.85
04/30 16:00 0.00 5.06 4308 13.72
04/30 17:00 0.00 5.03 4218 13.65
04/30 18:00 0.00 5.02 4189 13.34
04/30 19:00 0.00 5.02 4189 13.32
04/30 20:00 0.00 5.00 4130 12.53
04/30 21:00 0.00 4.99 4100 12.44
04/30 22:00 ---- ---- ---- ----
04/30 23:00 ---- ---- ---- ----
Data processed at Fri 01May2026 03:42 GMT

NOTICE: If you are parsing this page

Please convert to using our Data API. Starting early 2026 we will be migrating to: https://water.usace.army.mil with modern pages rendered in JavaScript. When this migration completes you will no longer be able to scrape this page! CWMSDataAPI (CDA)

Timeseries IDs (TSIDs)

TSIDs used from left to right in the data table
BAXT.Precip-Inc.Total.1Hour.1Hour.Ccp-Rev
BAXT.Stage.Inst.1Hour.0.Ccp-Rev
BAXT.Flow.Inst.1Hour.0.Ccp-Rev
BAXT.Volt-Battery Load.Inst.1Hour.0.Ccp-Rev

                            

All information presented herein is the property of the government of the United States of America and may be revised or deleted at any time without prior notice. Dissemination of this information without the expressed written consent of the Public Affairs Office, Tulsa District U.S. Army Corps of Engineers is strictly prohibited. These data are gathered electronically and, as presented, have NOT undergone any form of quality control. These data are NOT guaranteed to be valid or correct.